createdAt,value
2022-10-31T00:01:35.640Z,76.63
2022-10-31T00:04:04.842Z,76.61
2022-10-31T00:06:33.404Z,76.67
2022-10-31T00:09:03.849Z,76.41
2022-10-31T00:11:32.328Z,76.59
2022-10-31T00:14:01.123Z,76.36
2022-10-31T00:16:30.358Z,76.50
2022-10-31T00:19:01.365Z,76.61
2022-10-31T00:21:30.717Z,76.36
2022-10-31T00:24:00.263Z,76.27
2022-10-31T00:26:29.483Z,76.43
2022-10-31T00:28:58.769Z,76.55
2022-10-31T00:31:29.603Z,76.86
2022-10-31T00:33:59.104Z,76.64
2022-10-31T00:36:27.992Z,76.80
2022-10-31T00:38:56.488Z,77.02
2022-10-31T00:41:25.877Z,76.90
2022-10-31T00:43:54.151Z,76.85
2022-10-31T00:46:22.325Z,77.01
2022-10-31T00:48:52.940Z,77.04
2022-10-31T00:51:21.134Z,77.06
2022-10-31T00:53:49.611Z,77.18
2022-10-31T00:56:17.686Z,77.06
2022-10-31T00:58:45.757Z,76.81
2022-10-31T01:01:13.859Z,76.67
2022-10-31T01:03:42.204Z,76.77
2022-10-31T01:06:15.089Z,77.00
2022-10-31T01:08:43.569Z,76.98
2022-10-31T01:11:18.300Z,77.01
2022-10-31T01:13:48.005Z,77.02
2022-10-31T01:16:19.358Z,76.83
2022-10-31T01:18:48.261Z,76.62
2022-10-31T01:21:17.956Z,76.65
2022-10-31T01:23:46.735Z,76.82
2022-10-31T01:26:24.850Z,76.73
2022-10-31T01:29:02.650Z,76.90
2022-10-31T01:31:37.479Z,76.94
2022-10-31T01:34:06.534Z,76.73
2022-10-31T01:36:37.106Z,76.80
2022-10-31T01:39:08.284Z,76.76
2022-10-31T01:41:40.008Z,76.77
2022-10-31T01:44:16.591Z,76.90
2022-10-31T01:47:08.973Z,76.79
2022-10-31T01:49:36.988Z,76.96
2022-10-31T01:52:23.900Z,76.85
2022-10-31T01:55:03.040Z,76.84
2022-10-31T01:57:33.669Z,76.97
2022-10-31T02:00:07.269Z,76.87
2022-10-31T02:02:43.054Z,77.13
2022-10-31T02:05:17.440Z,77.28
2022-10-31T02:08:07.113Z,77.11
2022-10-31T02:10:37.748Z,76.94
2022-10-31T02:13:08.581Z,76.90
2022-10-31T02:15:45.448Z,76.94
2022-10-31T02:18:13.939Z,77.17
2022-10-31T02:20:53.275Z,77.21
2022-10-31T02:23:30.459Z,77.32
2022-10-31T02:26:05.187Z,77.38
2022-10-31T02:28:56.575Z,77.24
2022-10-31T02:31:43.314Z,77.06
2022-10-31T02:34:32.689Z,77.42
2022-10-31T02:37:08.541Z,77.04
2022-10-31T02:40:02.315Z,77.08
2022-10-31T02:43:03.457Z,77.16
2022-10-31T02:45:52.119Z,76.86
2022-10-31T02:48:27.558Z,76.81
2022-10-31T02:50:59.622Z,76.94
2022-10-31T02:53:28.104Z,76.91
2022-10-31T02:56:19.019Z,76.99
2022-10-31T02:58:54.763Z,76.96
2022-10-31T03:01:44.437Z,77.11
2022-10-31T03:04:54.394Z,76.84
2022-10-31T03:07:49.295Z,76.91
2022-10-31T03:10:51.485Z,76.95
2022-10-31T03:13:40.121Z,77.07
2022-10-31T03:16:11.568Z,76.86
2022-10-31T03:18:55.205Z,76.88
2022-10-31T03:21:32.493Z,76.84
2022-10-31T03:24:02.817Z,76.90
2022-10-31T03:26:32.219Z,77.14
2022-10-31T03:29:08.176Z,77.12
2022-10-31T03:31:43.926Z,77.14
2022-10-31T03:34:14.053Z,77.15
2022-10-31T03:36:43.552Z,77.00
2022-10-31T03:39:17.049Z,76.94
2022-10-31T03:41:51.268Z,76.69
2022-10-31T03:44:22.922Z,76.65
2022-10-31T03:46:58.391Z,76.78
2022-10-31T03:49:27.162Z,76.53
2022-10-31T03:52:20.441Z,76.58
2022-10-31T03:54:57.806Z,76.76
2022-10-31T03:57:34.478Z,76.72
2022-10-31T04:00:09.857Z,76.63
2022-10-31T04:03:12.302Z,76.45
2022-10-31T04:05:46.821Z,76.59
2022-10-31T04:08:21.548Z,76.67
2022-10-31T04:10:52.589Z,76.76
2022-10-31T04:13:27.419Z,76.80
2022-10-31T04:16:03.774Z,76.62
2022-10-31T04:18:31.752Z,76.51
2022-10-31T04:21:08.837Z,76.51
2022-10-31T04:23:37.765Z,76.77
2022-10-31T04:26:13.065Z,76.56
2022-10-31T04:28:41.037Z,76.61
2022-10-31T04:31:12.079Z,76.74
2022-10-31T04:33:40.457Z,76.69
2022-10-31T04:36:08.938Z,76.53
2022-10-31T04:38:37.316Z,76.44
2022-10-31T04:41:11.532Z,76.59
2022-10-31T04:43:54.200Z,76.75
2022-10-31T04:46:22.625Z,76.76
2022-10-31T04:48:50.699Z,76.68
2022-10-31T04:51:18.973Z,76.65
2022-10-31T04:53:47.043Z,76.52
2022-10-31T04:56:34.064Z,76.30
2022-10-31T04:59:06.140Z,76.49
2022-10-31T05:01:46.711Z,76.58
2022-10-31T05:04:15.067Z,76.54
2022-10-31T05:06:43.549Z,76.53
2022-10-31T05:09:11.623Z,76.48
2022-10-31T05:11:39.748Z,76.69
2022-10-31T05:14:25.377Z,76.52
2022-10-31T05:17:13.621Z,76.84
2022-10-31T05:20:12.411Z,76.95
2022-10-31T05:23:01.065Z,77.03
2022-10-31T05:25:30.043Z,77.02
2022-10-31T05:27:59.040Z,77.18
2022-10-31T05:30:30.913Z,76.89
2022-10-31T05:33:00.117Z,76.79
2022-10-31T05:35:47.128Z,76.83
2022-10-31T05:38:24.311Z,76.74
2022-10-31T05:40:58.833Z,76.97
2022-10-31T05:43:27.110Z,77.00
2022-10-31T05:45:57.127Z,77.11
2022-10-31T05:48:43.628Z,77.18
2022-10-31T05:51:30.132Z,77.08
2022-10-31T05:53:58.408Z,76.91
2022-10-31T05:56:26.994Z,77.36
2022-10-31T05:58:55.165Z,77.55
2022-10-31T06:01:23.285Z,77.58
2022-10-31T06:03:51.553Z,77.65
2022-10-31T06:06:21.837Z,77.54
2022-10-31T06:08:50.319Z,77.51
2022-10-31T06:11:21.666Z,77.41
2022-10-31T06:14:06.431Z,77.38
2022-10-31T06:16:45.252Z,77.17
2022-10-31T06:19:36.312Z,77.23
2022-10-31T06:22:04.439Z,77.27
2022-10-31T06:24:34.557Z,77.43
2022-10-31T06:27:07.029Z,77.20
2022-10-31T06:29:35.100Z,77.30
2022-10-31T06:32:06.551Z,77.35
2022-10-31T06:34:40.559Z,77.33
2022-10-31T06:37:11.090Z,77.26
2022-10-31T06:39:39.982Z,77.16
2022-10-31T06:42:10.518Z,77.18
2022-10-31T06:44:38.786Z,77.05
2022-10-31T06:48:15.435Z,77.00
2022-10-31T06:50:47.225Z,77.06
2022-10-31T06:53:15.707Z,77.23
2022-10-31T06:55:44.089Z,77.19
2022-10-31T06:58:12.778Z,77.15
2022-10-31T07:00:41.505Z,77.06
2022-10-31T07:03:15.056Z,76.94
2022-10-31T07:05:44.271Z,77.12
2022-10-31T07:08:14.578Z,77.26
2022-10-31T07:10:43.900Z,77.47
2022-10-31T07:13:15.329Z,77.47
2022-10-31T07:15:47.803Z,77.36
2022-10-31T07:18:16.593Z,77.55
2022-10-31T07:20:44.662Z,77.60
2022-10-31T07:23:14.201Z,77.42
2022-10-31T07:25:43.775Z,77.60
2022-10-31T07:28:17.889Z,77.94
2022-10-31T07:30:52.289Z,77.80
2022-10-31T07:33:22.160Z,77.97
2022-10-31T07:36:16.816Z,77.91
2022-10-31T07:38:46.231Z,77.64
2022-10-31T07:41:15.422Z,77.79
2022-10-31T07:43:45.377Z,78.02
2022-10-31T07:46:19.776Z,78.27
2022-10-31T07:49:06.256Z,78.21
2022-10-31T07:51:53.065Z,78.05
2022-10-31T07:54:39.673Z,77.95
2022-10-31T07:57:10.714Z,77.76
2022-10-31T07:59:41.039Z,77.86
2022-10-31T08:02:09.927Z,77.83
2022-10-31T08:04:50.491Z,77.70
2022-10-31T08:07:31.189Z,77.55
2022-10-31T08:10:01.694Z,77.62
2022-10-31T08:12:32.528Z,77.45
2022-10-31T08:15:00.700Z,77.33
2022-10-31T08:17:30.820Z,77.27
2022-10-31T08:20:01.345Z,77.43
2022-10-31T08:22:32.795Z,77.11
2022-10-31T08:25:01.382Z,77.39
2022-10-31T08:27:29.552Z,77.22
2022-10-31T08:30:00.097Z,77.19
2022-10-31T08:32:28.154Z,76.83
2022-10-31T08:34:59.915Z,76.50
2022-10-31T08:37:31.055Z,76.31
2022-10-31T08:39:59.126Z,76.58
2022-10-31T08:42:27.197Z,76.49
2022-10-31T08:44:55.166Z,76.43
2022-10-31T08:47:23.703Z,76.14
2022-10-31T08:49:51.924Z,76.08
2022-10-31T08:52:21.556Z,75.87
2022-10-31T08:54:50.018Z,75.68
2022-10-31T08:57:41.227Z,75.72
2022-10-31T09:00:10.110Z,75.66
2022-10-31T09:02:44.024Z,74.84
2022-10-31T09:05:12.200Z,75.14
2022-10-31T09:07:40.269Z,75.21
2022-10-31T09:10:09.154Z,75.11
2022-10-31T09:12:37.752Z,75.08
2022-10-31T09:15:25.171Z,74.90
2022-10-31T09:18:19.253Z,74.39
2022-10-31T09:21:12.511Z,74.44
2022-10-31T09:23:43.041Z,74.38
2022-10-31T09:26:11.214Z,74.35
2022-10-31T09:28:42.768Z,74.52
2022-10-31T09:31:13.601Z,74.04
2022-10-31T09:33:50.897Z,74.33
2022-10-31T09:36:45.768Z,73.93
2022-10-31T09:39:16.421Z,73.68
2022-10-31T09:42:16.955Z,73.55
2022-10-31T09:45:28.957Z,73.79
2022-10-31T09:48:11.261Z,73.87
2022-10-31T09:50:44.349Z,73.97
2022-10-31T09:53:36.455Z,73.34
2022-10-31T09:56:10.599Z,73.51
2022-10-31T09:59:00.994Z,73.25
2022-10-31T10:01:29.305Z,73.11
2022-10-31T10:04:20.842Z,72.89
2022-10-31T10:07:03.915Z,72.52
2022-10-31T10:09:47.529Z,72.79
2022-10-31T10:12:47.060Z,72.32
2022-10-31T10:15:20.969Z,72.37
2022-10-31T10:18:29.487Z,72.40
2022-10-31T10:21:34.627Z,72.17
2022-10-31T10:24:18.573Z,72.21
2022-10-31T10:27:05.280Z,71.86
2022-10-31T10:29:41.952Z,71.98
2022-10-31T10:32:19.446Z,71.72
2022-10-31T10:34:53.333Z,71.17
2022-10-31T10:37:39.653Z,70.83
2022-10-31T10:40:29.027Z,70.58
2022-10-31T10:43:26.890Z,70.90
2022-10-31T10:46:36.641Z,70.65
2022-10-31T10:49:17.493Z,70.96
2022-10-31T10:55:11.921Z,70.66
2022-10-31T10:57:45.932Z,70.41
2022-10-31T11:00:25.607Z,70.38
2022-10-31T11:02:54.466Z,70.48
2022-10-31T11:05:26.018Z,70.38
2022-10-31T11:07:54.395Z,70.33
2022-10-31T11:10:22.673Z,70.25
2022-10-31T11:13:04.964Z,70.04
2022-10-31T11:15:39.098Z,69.81
2022-10-31T11:18:13.587Z,69.50
2022-10-31T11:20:41.684Z,70.00
2022-10-31T11:23:21.015Z,69.40
2022-10-31T11:26:03.427Z,69.97
2022-10-31T11:28:36.224Z,70.03
2022-10-31T11:31:10.220Z,69.92
2022-10-31T11:33:48.218Z,69.91
2022-10-31T11:36:30.529Z,69.72
2022-10-31T11:39:02.388Z,69.83
2022-10-31T11:41:39.679Z,69.96
2022-10-31T11:44:18.603Z,69.95
2022-10-31T11:46:56.506Z,69.93
2022-10-31T11:49:36.354Z,69.94
2022-10-31T11:52:16.405Z,69.56
2022-10-31T11:54:55.810Z,69.68
2022-10-31T11:57:48.419Z,69.63
2022-10-31T12:03:24.673Z,69.55
2022-10-31T12:06:21.913Z,69.64
2022-10-31T12:08:49.997Z,69.48
2022-10-31T12:11:48.686Z,69.62
2022-10-31T12:14:50.652Z,69.92
2022-10-31T12:17:28.044Z,69.69
2022-10-31T12:20:22.228Z,69.63
2022-10-31T12:23:17.741Z,69.67
2022-10-31T12:26:20.628Z,69.72
2022-10-31T12:29:24.028Z,69.59
2022-10-31T12:32:11.067Z,69.48
2022-10-31T12:34:48.862Z,69.54
2022-10-31T12:37:20.395Z,69.43
2022-10-31T12:40:14.732Z,69.40
2022-10-31T12:42:42.753Z,69.19
2022-10-31T12:45:37.755Z,69.14
2022-10-31T12:48:20.882Z,69.40
2022-10-31T12:50:59.602Z,69.36
2022-10-31T12:53:42.726Z,69.13
2022-10-31T12:56:29.536Z,69.08
2022-10-31T12:59:28.020Z,68.87
2022-10-31T13:01:59.045Z,68.77
2022-10-31T13:05:03.181Z,68.95
2022-10-31T13:07:58.828Z,68.73
2022-10-31T13:10:36.082Z,68.69
2022-10-31T13:13:14.425Z,68.36
2022-10-31T13:15:53.422Z,68.47
2022-10-31T13:18:31.427Z,68.21
2022-10-31T13:21:03.390Z,67.94
2022-10-31T13:23:51.764Z,68.17
2022-10-31T13:26:27.181Z,68.09
2022-10-31T13:29:15.833Z,68.07
2022-10-31T13:31:44.519Z,68.00
2022-10-31T13:34:41.589Z,68.22
2022-10-31T13:37:38.109Z,68.07
2022-10-31T13:40:31.167Z,68.31
2022-10-31T13:43:36.102Z,68.53
2022-10-31T13:46:27.110Z,68.44
2022-10-31T13:48:55.183Z,68.48
2022-10-31T13:51:29.807Z,68.47
2022-10-31T13:54:25.425Z,68.15
2022-10-31T13:56:54.296Z,68.19
2022-10-31T13:59:24.573Z,68.46
2022-10-31T14:02:02.362Z,68.54
2022-10-31T14:04:47.351Z,68.43
2022-10-31T14:07:19.062Z,68.47
2022-10-31T14:10:00.650Z,68.22
2022-10-31T14:12:44.903Z,68.29
2022-10-31T14:15:22.701Z,68.51
2022-10-31T14:18:03.952Z,68.74
2022-10-31T14:20:43.523Z,69.15
2022-10-31T14:23:12.823Z,69.06
2022-10-31T14:25:41.926Z,69.28
2022-10-31T14:28:20.842Z,69.36
2022-10-31T14:30:58.021Z,69.41
2022-10-31T14:33:29.273Z,69.67
2022-10-31T14:36:24.481Z,69.65
2022-10-31T14:39:03.305Z,69.85
2022-10-31T14:41:45.814Z,69.88
2022-10-31T14:44:55.972Z,69.82
2022-10-31T14:47:36.947Z,69.94
2022-10-31T14:50:11.366Z,69.94
2022-10-31T14:52:40.565Z,70.04
2022-10-31T14:55:14.137Z,70.04
2022-10-31T14:57:51.145Z,70.15
2022-10-31T15:00:22.188Z,70.30
2022-10-31T15:03:15.561Z,70.41
2022-10-31T15:05:52.297Z,70.47
2022-10-31T15:08:53.373Z,70.54
2022-10-31T15:11:28.687Z,70.78
2022-10-31T15:13:58.814Z,70.82
2022-10-31T15:16:39.703Z,70.90
2022-10-31T15:19:11.462Z,70.85
2022-10-31T15:21:43.321Z,71.08
2022-10-31T15:24:14.669Z,71.18
2022-10-31T15:26:47.455Z,71.26
2022-10-31T15:29:27.201Z,71.33
2022-10-31T15:31:57.520Z,71.52
2022-10-31T15:34:43.717Z,71.53
2022-10-31T15:37:14.859Z,71.67
2022-10-31T15:39:44.884Z,71.74
2022-10-31T15:42:23.707Z,71.74
2022-10-31T15:45:20.188Z,71.90
2022-10-31T15:48:00.892Z,72.09
2022-10-31T15:50:41.661Z,72.19
2022-10-31T15:53:20.582Z,72.21
2022-10-31T15:55:58.614Z,72.28
2022-10-31T15:58:29.414Z,72.45
2022-10-31T16:01:05.362Z,72.49
2022-10-31T16:03:35.140Z,72.33
2022-10-31T16:06:06.358Z,72.51
2022-10-31T16:08:36.865Z,72.63
2022-10-31T16:11:08.029Z,72.60
2022-10-31T16:13:38.965Z,72.69
2022-10-31T16:19:06.952Z,72.70
2022-10-31T16:21:37.904Z,72.78
2022-10-31T16:24:17.333Z,72.77
2022-10-31T16:26:50.623Z,72.93
2022-10-31T16:29:46.083Z,72.93
2022-10-31T16:32:27.523Z,73.24
2022-10-31T16:34:59.868Z,73.22
2022-10-31T16:37:27.965Z,73.26
2022-10-31T16:39:56.038Z,73.37
2022-10-31T16:42:24.133Z,73.41
2022-10-31T16:44:52.486Z,73.41
2022-10-31T16:47:22.223Z,73.52
2022-10-31T16:49:52.728Z,73.89
2022-10-31T16:52:21.002Z,73.72
2022-10-31T16:54:48.973Z,73.72
2022-10-31T16:57:21.653Z,73.77
2022-10-31T16:59:55.047Z,73.90
2022-10-31T17:02:23.431Z,74.48
2022-10-31T17:04:54.005Z,74.59
2022-10-31T17:07:28.073Z,74.72
2022-10-31T17:09:59.667Z,74.76
2022-10-31T17:12:28.512Z,74.83
2022-10-31T17:14:56.994Z,74.83
2022-10-31T17:17:24.971Z,74.74
2022-10-31T17:19:53.033Z,74.82
2022-10-31T17:22:21.106Z,74.76
2022-10-31T17:24:49.176Z,74.80
2022-10-31T17:27:17.458Z,74.81
2022-10-31T17:29:45.420Z,75.00
2022-10-31T17:32:13.492Z,75.24
2022-10-31T17:34:41.769Z,75.10
2022-10-31T17:37:11.815Z,75.20
2022-10-31T17:39:40.881Z,75.22
2022-10-31T17:42:08.952Z,75.28
2022-10-31T17:44:36.923Z,75.39
2022-10-31T17:47:04.991Z,75.54
2022-10-31T17:49:33.064Z,75.23
2022-10-31T17:52:01.269Z,75.21
2022-10-31T17:54:29.308Z,75.41
2022-10-31T17:56:57.379Z,75.54
2022-10-31T17:59:27.808Z,75.50
2022-10-31T18:01:57.610Z,75.68
2022-10-31T18:04:26.380Z,75.74
2022-10-31T18:06:54.685Z,75.90
2022-10-31T18:09:22.755Z,75.93
2022-10-31T18:11:50.826Z,75.97
2022-10-31T18:14:19.002Z,76.08
2022-10-31T18:16:47.176Z,75.98
2022-10-31T18:19:19.239Z,75.89
2022-10-31T18:21:47.311Z,75.69
2022-10-31T18:24:15.383Z,75.63
2022-10-31T18:26:43.454Z,75.61
2022-10-31T18:29:12.036Z,75.32
2022-10-31T18:31:40.108Z,75.29
2022-10-31T18:34:09.543Z,75.29
2022-10-31T18:36:46.363Z,75.32
2022-10-31T18:39:29.883Z,75.20
2022-10-31T18:42:06.287Z,75.27
2022-10-31T18:44:42.658Z,75.16
2022-10-31T18:47:18.075Z,74.94
2022-10-31T18:49:53.950Z,74.91
2022-10-31T18:52:28.966Z,75.10
2022-10-31T18:55:07.957Z,75.03
2022-10-31T18:57:49.168Z,74.87
2022-10-31T19:00:25.843Z,74.97
2022-10-31T19:02:56.969Z,74.90
2022-10-31T19:05:25.083Z,74.66
2022-10-31T19:07:53.052Z,74.81
2022-10-31T19:10:21.021Z,74.88
2022-10-31T19:12:49.094Z,74.85
2022-10-31T19:15:17.163Z,74.80
2022-10-31T19:17:45.236Z,74.92
2022-10-31T19:20:14.268Z,74.75
2022-10-31T19:22:42.406Z,74.79
2022-10-31T19:25:11.233Z,74.64
2022-10-31T19:27:39.468Z,74.50
2022-10-31T19:30:09.103Z,74.74
2022-10-31T19:32:37.554Z,74.69
2022-10-31T19:35:09.589Z,74.80
2022-10-31T19:37:40.354Z,74.71
2022-10-31T19:40:10.190Z,74.74
2022-10-31T19:42:39.442Z,74.73
2022-10-31T19:45:08.769Z,74.45
2022-10-31T19:47:38.661Z,74.65
2022-10-31T19:50:08.689Z,74.52
2022-10-31T19:52:39.193Z,74.43
2022-10-31T19:55:08.116Z,74.60
2022-10-31T20:00:25.458Z,74.75
2022-10-31T20:02:53.836Z,74.57
2022-10-31T20:05:23.779Z,74.45
2022-10-31T20:07:52.027Z,74.55
2022-10-31T20:10:20.201Z,74.56
2022-10-31T20:12:49.091Z,74.70
2022-10-31T20:15:17.369Z,74.73
2022-10-31T20:17:46.053Z,74.55
2022-10-31T20:20:14.226Z,74.54
2022-10-31T20:22:42.401Z,74.51
2022-10-31T20:25:10.472Z,74.26
2022-10-31T20:27:38.442Z,74.35
2022-10-31T20:30:07.567Z,74.59
2022-10-31T20:32:36.428Z,74.69
2022-10-31T20:35:05.200Z,74.47
2022-10-31T20:37:33.293Z,74.38
2022-10-31T20:40:01.360Z,74.42
2022-10-31T20:42:29.327Z,74.56
2022-10-31T20:44:57.296Z,74.47
2022-10-31T20:47:25.975Z,74.43
2022-10-31T20:49:54.671Z,74.16
2022-10-31T20:52:22.739Z,74.54
2022-10-31T20:54:50.813Z,74.40
2022-10-31T20:57:18.779Z,74.37
2022-10-31T20:59:47.362Z,74.40
2022-10-31T21:02:15.768Z,74.49
2022-10-31T21:04:43.923Z,74.36
2022-10-31T21:07:12.395Z,74.20
2022-10-31T21:09:40.569Z,74.30
2022-10-31T21:12:08.746Z,74.31
2022-10-31T21:14:37.434Z,74.21
2022-10-31T21:17:07.052Z,74.34
2022-10-31T21:19:36.439Z,74.49
2022-10-31T21:22:04.411Z,74.25
2022-10-31T21:24:32.480Z,74.33
2022-10-31T21:27:02.097Z,74.24
2022-10-31T21:29:31.566Z,74.13
2022-10-31T21:31:59.663Z,74.18
2022-10-31T21:34:27.736Z,74.19
2022-10-31T21:36:55.914Z,74.31
2022-10-31T21:39:24.293Z,74.24
2022-10-31T21:41:52.359Z,74.42
2022-10-31T21:44:21.047Z,74.33
2022-10-31T21:46:49.936Z,74.35
2022-10-31T21:49:18.138Z,74.48
2022-10-31T21:51:47.716Z,74.72
2022-10-31T21:54:27.973Z,74.60
2022-10-31T21:56:58.296Z,74.68
2022-10-31T21:59:26.681Z,74.86
2022-10-31T22:01:57.819Z,74.60
2022-10-31T22:04:26.199Z,74.73
2022-10-31T22:06:54.269Z,74.39
2022-10-31T22:09:23.672Z,74.71
2022-10-31T22:11:51.845Z,74.77
2022-10-31T22:14:20.019Z,74.82
2022-10-31T22:16:48.091Z,74.52
2022-10-31T22:19:16.369Z,74.70
2022-10-31T22:21:47.376Z,74.65
2022-10-31T22:24:16.916Z,74.85
2022-10-31T22:26:45.394Z,74.57
2022-10-31T22:29:17.451Z,74.57
2022-10-31T22:31:50.625Z,74.54
2022-10-31T22:34:22.000Z,74.54
2022-10-31T22:36:50.282Z,74.54
2022-10-31T22:39:18.347Z,74.76
2022-10-31T22:41:46.316Z,74.64
2022-10-31T22:44:14.388Z,74.57
2022-10-31T22:46:42.383Z,74.53
2022-10-31T22:49:16.881Z,74.46
2022-10-31T22:51:45.376Z,74.42
2022-10-31T22:54:16.508Z,74.52
2022-10-31T22:56:45.489Z,74.61
2022-10-31T22:59:15.617Z,74.71
2022-10-31T23:01:45.995Z,74.75
2022-10-31T23:04:16.441Z,74.74
2022-10-31T23:06:45.055Z,74.62
2022-10-31T23:09:16.309Z,74.53
2022-10-31T23:11:45.528Z,74.67
2022-10-31T23:14:21.132Z,74.76
2022-10-31T23:16:57.216Z,74.74
2022-10-31T23:19:30.396Z,74.73
2022-10-31T23:22:02.305Z,74.72
2022-10-31T23:24:36.879Z,74.72
2022-10-31T23:27:10.128Z,74.52
2022-10-31T23:29:50.227Z,74.36
2022-10-31T23:32:35.431Z,74.63
2022-10-31T23:35:06.722Z,74.96
2022-10-31T23:37:37.275Z,74.81
2022-10-31T23:40:08.724Z,74.98
2022-10-31T23:42:36.695Z,74.84
2022-10-31T23:45:05.375Z,74.73
2022-10-31T23:47:33.452Z,74.95
2022-10-31T23:50:01.423Z,74.90
2022-10-31T23:52:29.698Z,74.68
2022-10-31T23:54:59.919Z,74.77
2022-10-31T23:57:27.996Z,74.68
2022-10-31T23:59:55.960Z,74.89
